• Join FlightAware (Why Join?)
  • Login
  • US Flag 
10:13PM EDT


 

Airport Tracker/Info


-or-


 

Live Flight TrackerFlight Track Log ✈ N8177Y ✈ 09-Jul-2013 ✈ KSEZ - KBUR

Flight Track Log - Related Links

Times and Time Zones

All times are in EDT time to prevent confusion due to time zone crossing. See the N8177Y flight status page for this flight to view local times or setup timezone preferences in your user account.

Time Position Orientation Groundspeed Altitude Reporting Facility
EDT Latitude Longitude Course Direction KTS MPH feet Rate Location/Type
04:19PM 34.7708 -112.0857 251° West  Level FlightAware Approximate
04:20PM 34.7602 -112.1360 258° West  Level FlightAware Approximate
04:21PM 34.7510 -112.1869 258° West  Level FlightAware Approximate
04:21PM 34.8114 -111.9247 251° West 121 139 7,200  Level Albuquerque Center
04:22PM 34.7418 -112.2377 258° West  Level FlightAware Approximate
04:22PM 34.8022 -111.9622 253° West 119 137 7,700  Level Albuquerque Center
04:23PM 34.7325 -112.2885 258° West  Level FlightAware Approximate
04:23PM 34.7969 -112.0003 260° West 116 133 8,300  Level Albuquerque Center
04:24PM 34.7233 -112.3393 258° West  Level FlightAware Approximate
04:24PM 34.7900 -112.0386 258° West 116 133 8,900  Level Albuquerque Center
04:25PM 34.7140 -112.3901 257° West  Level FlightAware Approximate
04:25PM 34.7794 -112.0867 255° West 121 139 9,800  Level Albuquerque Center
04:26PM 34.7733 -112.1292 260° West 126 145 10,000 60 Climbing Albuquerque Center
04:27PM 34.7661 -112.1814 260° West 147 169 10,000 180 Level Albuquerque Center
04:28PM 34.7556 -112.2333 256° West 157 181 10,400 480 Climbing Albuquerque Center
04:29PM 34.7411 -112.2761 248° West 146 168 11,000 540 Climbing Albuquerque Center
04:30PM 34.7311 -112.3225 255° West 143 165 11,600 480 Climbing Albuquerque Center
04:31PM 34.7236 -112.3833 261° West 147 169 12,000 180 Climbing Albuquerque Center
04:32PM 34.7172 -112.4394 262° West 155 178 12,000  Level Albuquerque Center
04:33PM 34.7086 -112.4956 259° West 162 186 12,000  Level Albuquerque Center
04:34PM 34.7036 -112.5514 264° West 165 190 12,000  Level Albuquerque Center
04:35PM 34.7131 -112.6075 282° West 169 194 12,000  Level Albuquerque Center
04:36PM 34.7175 -112.6636 276° West 168 193 12,000  Level Albuquerque Center
04:37PM 34.7150 -112.7217 267° West 169 194 12,000  Level Albuquerque Center
04:38PM 34.7181 -112.7906 273° West 171 197 12,000  Level Albuquerque Center
04:39PM 34.7239 -112.8478 277° West 172 198 12,000  Level Albuquerque Center
04:41PM 34.7239 -112.9050 270° West 171 197 12,000  Level Albuquerque Center
04:42PM 34.7242 -112.9625 270° West 171 197 12,000  Level Albuquerque Center
04:43PM 34.7339 -113.0203 282° West 175 201 12,000  Level Albuquerque Center
04:44PM 34.7322 -113.0789 268° West 176 203 12,000  Level Albuquerque Center
04:45PM 34.7306 -113.1469 268° West 171 197 12,000  Level Albuquerque Center
04:46PM 34.7392 -113.2019 281° West 169 194 12,000  Level Albuquerque Center
04:47PM 34.7403 -113.2572 271° West 166 191 12,000  Level Albuquerque Center
04:48PM 34.7344 -113.3128 263° West 168 193 12,000  Level Albuquerque Center
04:49PM 34.7353 -113.3658 271° West 163 188 12,000  Level Albuquerque Center
04:50PM 34.7425 -113.4183 280° West 160 184 12,000  Level Albuquerque Center
04:51PM 34.7417 -113.4831 269° West 161 185 12,000  Level Albuquerque Center
04:52PM 34.7422 -113.5369 271° West 162 186 12,000 60 Level Albuquerque Center
04:53PM 34.7475 -113.5919 277° West 164 189 12,200 120 Climbing Albuquerque Center
04:54PM 34.7481 -113.6439 271° West 158 182 12,300  Climbing Albuquerque Center
04:55PM 34.7456 -113.6964 267° West 157 181 12,300  Level Albuquerque Center
04:56PM 34.7503 -113.7506 276° West 161 185 12,300  Level Albuquerque Center
04:57PM 34.7542 -113.8156 274° West 162 186 12,300  Level Albuquerque Center
04:58PM 34.7539 -113.8672 270° West 157 181 12,300 -60 Level Albuquerque Center
04:59PM 34.7547 -113.8981 272° West 157 181 12,200 -60 Descending Los Angeles Center
05:00PM 34.7561 -113.9556 272° West 157 181 12,200  Level Los Angeles Center
05:01PM 34.7581 -114.0086 273° West 157 181 12,200  Level Los Angeles Center
05:02PM 34.7597 -114.0722 272° West 157 181 12,200  Level Los Angeles Center
05:03PM 34.7614 -114.1347 272° West 155 178 12,200  Level Los Angeles Center
05:04PM 34.7636 -114.1872 273° West 156 180 12,200  Level Los Angeles Center
05:05PM 34.7644 -114.2397 271° West 156 180 12,200  Level Los Angeles Center
05:06PM 34.7658 -114.2919 272° West 155 178 12,200  Level Los Angeles Center
05:07PM 34.7672 -114.3439 272° West 153 176 12,200  Level Los Angeles Center
05:08PM 34.7678 -114.4050 271° West 152 175 12,200  Level Los Angeles Center
05:09PM 34.7697 -114.4567 273° West 152 175 12,200  Level Los Angeles Center
05:10PM 34.7492 -114.5028 242° Southwest 153 176 12,200  Level Los Angeles Center
05:11PM 34.7275 -114.5461 239° Southwest 150 173 12,200  Level Los Angeles Center
05:12PM 34.7081 -114.5939 244° Southwest 154 177 12,200  Level Los Angeles Center
05:13PM 34.6883 -114.6386 242° Southwest 151 174 12,200  Level Los Angeles Center
05:15PM 34.6592 -114.6922 237° Southwest 156 180 12,200  Level Los Angeles Center
05:16PM 34.6333 -114.7456 240° Southwest 155 178 12,200  Level Los Angeles Center
05:17PM 34.6111 -114.7889 238° Southwest 152 175 12,200  Level Los Angeles Center
05:18PM 34.5892 -114.8328 239° Southwest 152 175 12,200  Level Los Angeles Center
05:19PM 34.5678 -114.8786 240° Southwest 155 178 12,200  Level Los Angeles Center
05:20PM 34.5458 -114.9228 239° Southwest 153 176 12,200  Level Los Angeles Center
05:21PM 34.5175 -114.9756 237° Southwest 154 177 12,200  Level Los Angeles Center
05:22PM 34.4950 -115.0189 238° Southwest 153 176 12,200  Level Los Angeles Center
05:23PM 34.4739 -115.0647 241° Southwest 154 177 12,200  Level Los Angeles Center
05:24PM 34.4517 -115.1089 239° Southwest 153 176 12,200  Level Los Angeles Center
05:25PM 34.4297 -115.1514 238° Southwest 150 173 12,200 -60 Level Los Angeles Center
05:26PM 34.4053 -115.2003 239° Southwest 154 177 12,100 -180 Descending Los Angeles Center
05:27PM 34.3825 -115.2453 238° Southwest 156 180 11,900 -120 Descending Los Angeles Center
05:28PM 34.3658 -115.2806 240° Southwest 154 177 11,900  Level Los Angeles Center
05:29PM 34.3331 -115.3425 237° Southwest 155 178 11,900  Level Los Angeles Center
05:30PM 34.3114 -115.3892 241° Southwest 160 184 11,900  Level Los Angeles Center
05:31PM 34.2886 -115.4356 239° Southwest 160 184 11,900  Level Los Angeles Center
05:32PM 34.2658 -115.4800 238° Southwest 158 182 11,900  Level Los Angeles Center
05:33PM 34.2431 -115.5256 239° Southwest 157 181 11,900 -60 Level Los Angeles Center
05:34PM 34.2192 -115.5669 235° Southwest 152 175 11,800 -60 Descending Los Angeles Center
05:35PM 34.1933 -115.6219 240° Southwest 156 180 11,800  Level Los Angeles Center
05:36PM 34.1706 -115.6686 239° Southwest 159 183 11,800  Level Los Angeles Center
05:37PM 34.1519 -115.7036 237° Southwest 159 183 11,800  Level Los Angeles Center
05:39PM 34.1239 -115.7575 238° Southwest 159 183 11,800  Level Los Angeles Center
05:40PM 34.1022 -115.8044 241° Southwest 158 182 11,800  Level Los Angeles Center
05:41PM 34.0858 -115.8525 248° West 156 180 11,800  Level Los Angeles Center
05:42PM 34.0667 -115.9133 249° West 159 183 11,800  Level Los Angeles Center
05:43PM 34.0486 -115.9636 247° West 164 189 11,900  Climbing Los Angeles Center
05:44PM 34.0450 -116.0175 265° West 161 185 11,800 -60 Descending Los Angeles Center
05:45PM 34.0478 -116.0703 274° West 160 184 11,800 -120 Level Los Angeles Center
05:46PM 34.0406 -116.1211 260° West 157 181 11,600 -300 Descending Los Angeles Center
05:47PM 34.0239 -116.1842 252° West 163 188 11,300 -360 Descending Los Angeles Center
05:48PM 34.0175 -116.2364 262° West 160 184 10,900 -360 Descending Los Angeles Center
05:49PM 34.0161 -116.2794 268° West 160 184 10,600 -480 Descending Los Angeles Center
05:50PM 34.0094 -116.3447 263° West 163 188 10,000 -360 Descending Los Angeles Center
05:51PM 34.0019 -116.3994 261° West 166 191 9,900 -60 Descending Los Angeles Center
05:52PM 33.9956 -116.4514 262° West 159 183 9,900  Level Los Angeles Center
05:53PM 33.9853 -116.5114 258° West 154 177 9,900 60 Level Los Angeles Center
05:54PM 33.9775 -116.5614 259° West 153 176 10,100  Climbing Los Angeles Center
05:55PM 33.9714 -116.6125 262° West 155 178 10,000 -60 Descending Los Angeles Center
05:56PM 33.9644 -116.6639 261° West 155 178 10,000  Level Los Angeles Center
05:57PM 33.9583 -116.7136 262° West 154 177 10,100  Climbing Los Angeles Center
05:58PM 33.9508 -116.7733 261° West 151 174 10,000 -60 Descending Los Angeles Center
05:59PM 33.9497 -116.8247 269° West 152 175 10,000  Level Los Angeles Center
06:00PM 33.9497 -116.8764 270° West 154 177 10,100  Climbing Los Angeles Center
06:01PM 33.9500 -116.9167 270° West 156 180 10,000 -300 Descending Southern California TRACON
06:02PM 33.9500 -116.9667 270° West 166 191 9,700 -420 Descending Southern California TRACON
06:03PM 33.9500 -117.0167 270° West 169 194 9,200 -540 Descending Southern California TRACON
06:04PM 33.9500 -117.0833 270° West 165 190 8,700 -540 Descending Southern California TRACON
06:05PM 33.9333 -117.1333 248° West 163 188 8,200 -540 Descending Southern California TRACON
06:06PM 33.9333 -117.1833 270° West 167 192 7,700 -480 Descending Southern California TRACON
06:07PM 33.9333 -117.2500 270° West 170 196 7,300 -540 Descending Southern California TRACON
06:08PM 33.9333 -117.3000 270° West 172 198 6,700 -540 Descending Southern California TRACON
06:09PM 33.9333 -117.3500 270° West 165 190 6,300 -360 Descending Southern California TRACON
06:10PM 33.9333 -117.4167 270° West 158 182 6,000 -240 Descending Southern California TRACON
06:11PM 33.9333 -117.4667 270° West 146 168 5,900 -60 Descending Southern California TRACON
06:12PM 33.9500 -117.5000 301° West 143 165 5,900  Level Southern California TRACON
06:13PM 33.9500 -117.5500 270° West 147 169 5,900  Level Southern California TRACON
06:14PM 33.9500 -117.6000 270° West 148 170 5,900  Level Southern California TRACON
06:15PM 33.9500 -117.6500 270° West 146 168 5,900  Level Southern California TRACON
06:16PM 33.9833 -117.7000 309° West 146 168 5,900  Level Southern California TRACON
06:17PM 33.9833 -117.7333 270° West 145 167 5,900  Level Southern California TRACON
06:18PM 34.0000 -117.7833 292° West 145 167 5,900  Level Southern California TRACON
06:19PM 34.0167 -117.8333 292° West 144 166 5,900  Level Southern California TRACON
06:20PM 34.0333 -117.8667 301° West 144 166 5,900  Level Southern California TRACON
06:21PM 34.0500 -117.9167 292° West 143 165 5,900  Level Southern California TRACON
06:22PM 34.0667 -117.9667 292° West 147 169 5,900  Level Southern California TRACON
06:23PM 34.0667 -118.0000 270° West 148 170 5,900  Level Southern California TRACON
06:24PM 34.1000 -118.0500 309° West 147 169 5,900  Level Southern California TRACON
06:25PM 34.1000 -118.1000 270° West 148 170 5,900  Level Southern California TRACON
06:26PM 34.1167 -118.1500 292° West 147 169 5,900  Level Southern California TRACON
06:27PM 34.1269 -118.1869 289° West 148 170 6,000  Climbing Los Angeles Center
06:28PM 34.1456 -118.2314 297° West 149 171 6,000  Level Los Angeles Center
06:29PM 34.1444 -118.2906 269° West 153 176 6,000  Level Los Angeles Center
06:30PM 34.1403 -118.3403 264° West 150 173 6,000  Level Los Angeles Center
06:31PM 34.1386 -118.3900 268° West 150 173 6,000  Level Los Angeles Center
06:32PM 34.1367 -118.4394 267° West 149 171 6,000 -300 Level Los Angeles Center
06:33PM 34.1333 -118.4925 266° West 154 177 5,500 -780 Descending Los Angeles Center
06:34PM 34.1333 -118.5597 270° West 163 188 4,500 -780 Descending Los Angeles Center
06:35PM 34.1769 -118.5775 341° North 166 191 4,000 -540 Descending Los Angeles Center
06:36PM 34.2008 -118.5356 55° Northeast 170 196 3,500 -660 Descending Los Angeles Center
06:37PM 34.1997 -118.4836 91° East 162 186 2,700 2,340 Descending Los Angeles Center
06:39PM 34.2000 -118.4167 90° East 103 119 10,000 1,320 Climbing Southern California TRACON
06:40PM 34.2000 -118.3833 90° East 99 114 6,400 -3,600 Descending Southern California TRACON